Time;durP1;ratioP1;P1;durP2;ratioP2;P2;SDS_P1;SDS_P2;PMS_P1;PMS_P2;Temp;Humidity;BMP_temperature;BMP_pressure;BME280_temperature;BME280_humidity;BME280_pressure;Samples;Min_cycle;Max_cycle;Signal;HPM_P1;HPM_P2
2023/11/21 00:02:10;;;;;;;10.43;7.37;;;;;;;-144.99;100.00;67352.69;5077942;28;20672;-86
2023/11/21 00:04:40;;;;;;;7.87;7.03;;;;;;;-144.99;100.00;67352.69;5084030;28;20201;-85
2023/11/21 00:07:06;;;;;;;9.77;8.43;;;;;;;-144.99;100.00;67352.69;5079262;28;20654;-85
2023/11/21 00:09:36;;;;;;;10.87;6.50;;;;;;;-144.99;100.00;67352.69;5079914;28;20188;-86
2023/11/21 00:12:04;;;;;;;7.07;6.40;;;;;;;-144.99;100.00;67352.69;5078315;28;20280;-86
2023/11/21 00:14:33;;;;;;;8.17;5.80;;;;;;;-144.99;100.00;67352.69;5074175;28;20229;-85
2023/11/21 00:17:01;;;;;;;14.67;5.07;;;;;;;-144.99;100.00;67352.69;5084863;28;20211;-87
2023/11/21 00:19:27;;;;;;;6.00;5.33;;;;;;;-144.99;100.00;67352.69;5075227;28;20178;-86
2023/11/21 00:21:52;;;;;;;10.63;7.00;;;;;;;-144.99;100.00;67352.69;5065860;28;20197;-85
2023/11/21 00:24:20;;;;;;;6.63;5.87;;;;;;;-144.99;100.00;67352.69;5075918;28;20238;-86
2023/11/21 00:26:48;;;;;;;7.37;5.40;;;;;;;-144.99;100.00;67352.69;5064625;28;20210;-85
2023/11/21 00:29:13;;;;;;;5.43;4.90;;;;;;;-144.99;100.00;67352.69;5061706;28;20239;-86
2023/11/21 00:31:44;;;;;;;21.13;8.90;;;;;;;-144.99;100.00;67352.69;5077245;28;20197;-86
2023/11/21 00:34:14;;;;;;;2.77;2.43;;;;;;;-144.99;100.00;67352.69;5077720;28;20212;-85
2023/11/21 00:36:42;;;;;;;11.37;7.23;;;;;;;-144.99;100.00;67352.69;5077341;28;20187;-85
2023/11/21 00:39:11;;;;;;;5.73;5.23;;;;;;;-144.99;100.00;67352.69;5077602;28;20276;-86
2023/11/21 00:41:43;;;;;;;8.73;6.20;;;;;;;-144.99;100.00;67352.69;5076469;28;20284;-86
2023/11/21 00:44:09;;;;;;;15.23;6.63;;;;;;;-144.99;100.00;67352.69;5077896;28;20221;-86
2023/11/21 00:46:37;;;;;;;4.77;4.10;;;;;;;-144.99;100.00;67352.69;5064236;28;20230;-85
2023/11/21 00:49:04;;;;;;;10.73;8.07;;;;;;;-144.99;100.00;67352.69;5073765;28;20197;-86
2023/11/21 00:51:30;;;;;;;7.73;7.00;;;;;;;-144.99;100.00;67352.69;5064390;28;20277;-85
2023/11/21 00:53:55;;;;;;;10.20;7.47;;;;;;;-144.99;100.00;67352.69;5072607;28;20801;-86
2023/11/21 00:56:25;;;;;;;7.40;3.77;;;;;;;-144.99;100.00;67352.69;5076268;28;20182;-86
2023/11/21 00:58:52;;;;;;;15.00;7.23;;;;;;;-144.99;100.00;67352.69;5076288;28;20181;-85
2023/11/21 01:01:19;;;;;;;5.03;4.63;;;;;;;-144.99;100.00;67352.69;5075578;28;20190;-85
2023/11/21 01:03:46;;;;;;;15.33;7.70;;;;;;;-144.99;100.00;67352.69;5076025;28;20213;-86
2023/11/21 01:06:15;;;;;;;23.93;10.20;;;;;;;-144.99;100.00;67352.69;5064891;28;20269;-86
2023/11/21 01:08:40;;;;;;;7.83;7.17;;;;;;;-144.99;100.00;67352.69;5087711;28;20733;-86
2023/11/21 01:11:08;;;;;;;5.53;5.03;;;;;;;-144.99;100.00;67352.69;5085203;28;20182;-85
2023/11/21 01:13:35;;;;;;;8.43;7.33;;;;;;;-144.99;100.00;67352.69;5095734;28;20193;-86
2023/11/21 01:16:14;;;;;;;4.70;3.50;;;;;;;-144.99;100.00;67352.69;5077192;28;20189;-86
2023/11/21 01:18:40;;;;;;;11.80;5.93;;;;;;;-144.99;100.00;67352.69;5077990;28;20249;-86
2023/11/21 01:21:05;;;;;;;13.77;6.07;;;;;;;-144.99;100.00;67352.69;5094563;28;20224;-86
2023/11/21 01:23:31;;;;;;;11.27;7.30;;;;;;;-144.99;100.00;67352.69;5074692;28;20229;-86
2023/11/21 01:26:07;;;;;;;10.93;6.27;;;;;;;-144.99;100.00;67352.69;5057785;28;20206;-86
2023/11/21 01:28:32;;;;;;;4.80;4.40;;;;;;;-144.99;100.00;67352.69;5053327;28;20178;-87
2023/11/21 01:30:58;;;;;;;11.93;7.17;;;;;;;-144.99;100.00;67352.69;5073481;28;20691;-85
2023/11/21 01:33:32;;;;;;;14.17;8.40;;;;;;;-144.99;100.00;67352.69;5076815;28;20283;-85
2023/11/21 01:35:57;;;;;;;13.33;6.17;;;;;;;-144.99;100.00;67352.69;5057263;28;20174;-87
2023/11/21 01:38:23;;;;;;;9.80;7.23;;;;;;;-144.99;100.00;67352.69;5061504;28;20189;-85
2023/11/21 01:40:49;;;;;;;10.37;5.43;;;;;;;-144.99;100.00;67352.69;5057319;28;20182;-85
2023/11/21 01:43:14;;;;;;;13.97;6.27;;;;;;;-144.99;100.00;67352.69;5075677;28;20224;-86
2023/11/21 01:45:40;;;;;;;15.47;6.30;;;;;;;-144.99;100.00;67352.69;5077273;28;20198;-85
2023/11/21 01:48:16;;;;;;;2.60;2.43;;;;;;;-144.99;100.00;67352.69;5067699;28;20683;-86
2023/11/21 01:50:45;;;;;;;5.83;5.33;;;;;;;-144.99;100.00;67352.69;5083835;28;20182;-85
2023/11/21 01:53:13;;;;;;;8.03;3.67;;;;;;;-144.99;100.00;67352.69;5056533;28;20606;-85
2023/11/21 01:55:41;;;;;;;13.73;8.87;;;;;;;-144.99;100.00;67352.69;5070567;28;20197;-85
2023/11/21 01:58:13;;;;;;;18.00;10.10;;;;;;;-144.99;100.00;67352.69;5064527;28;20174;-85
2023/11/21 02:00:41;;;;;;;17.57;6.03;;;;;;;-144.99;100.00;67352.69;5062832;28;20186;-85
2023/11/21 02:03:10;;;;;;;16.13;7.20;;;;;;;-144.99;100.00;67352.69;5095113;28;20209;-85
2023/11/21 02:05:38;;;;;;;19.37;7.83;;;;;;;-144.99;100.00;67352.69;5061512;28;20704;-85
2023/11/21 02:08:04;;;;;;;21.37;7.87;;;;;;;-144.99;100.00;67352.69;5074464;28;20186;-86
2023/11/21 02:10:31;;;;;;;13.63;9.07;;;;;;;-144.99;100.00;67352.69;5095491;28;20181;-86
2023/11/21 02:13:02;;;;;;;11.97;7.10;;;;;;;-144.99;100.00;67352.69;5068861;28;20224;-85
2023/11/21 02:15:31;;;;;;;21.27;8.10;;;;;;;-144.99;100.00;67352.69;5072607;28;20258;-85
2023/11/21 02:17:58;;;;;;;5.77;5.20;;;;;;;-144.99;100.00;67352.69;5064765;28;20189;-86
2023/11/21 02:20:28;;;;;;;5.57;5.17;;;;;;;-144.99;100.00;67352.69;5072231;28;20194;-86
2023/11/21 02:23:01;;;;;;;7.73;6.10;;;;;;;-144.99;100.00;67352.69;5074720;28;20209;-86
2023/11/21 02:25:36;;;;;;;4.77;4.47;;;;;;;-144.99;100.00;67352.69;5060578;28;20212;-86
2023/11/21 02:28:06;;;;;;;27.17;7.23;;;;;;;-144.99;100.00;67352.69;5067315;28;20225;-86
2023/11/21 02:30:32;;;;;;;21.53;5.73;;;;;;;-144.99;100.00;67352.69;5087360;28;20251;-86
2023/11/21 02:32:58;;;;;;;13.00;8.23;;;;;;;-144.99;100.00;67352.69;5068173;28;20676;-86
2023/11/21 02:35:25;;;;;;;12.30;7.33;;;;;;;-144.99;100.00;67352.69;5055682;28;20198;-86
2023/11/21 02:37:52;;;;;;;7.03;6.03;;;;;;;-144.99;100.00;67352.69;5081492;28;20321;-87
2023/11/21 02:40:17;;;;;;;33.20;7.27;;;;;;;-144.99;100.00;67352.69;5065902;28;20560;-85
2023/11/21 02:42:47;;;;;;;3.10;2.87;;;;;;;-144.99;100.00;67352.69;5055659;28;20214;-86
2023/11/21 02:45:14;;;;;;;4.73;4.43;;;;;;;-144.99;100.00;67352.69;5092772;28;20198;-85
2023/11/21 02:47:39;;;;;;;22.60;7.47;;;;;;;-144.99;100.00;67352.69;5061086;28;20202;-86
2023/11/21 02:50:08;;;;;;;12.60;6.00;;;;;;;-144.99;100.00;67352.69;5091632;28;20182;-85
2023/11/21 02:52:36;;;;;;;12.23;8.03;;;;;;;-144.99;100.00;67352.69;5063327;28;20652;-85
2023/11/21 02:55:03;;;;;;;6.13;5.43;;;;;;;-144.99;100.00;67352.69;5064493;28;20198;-84
2023/11/21 02:57:33;;;;;;;9.47;6.43;;;;;;;-144.99;100.00;67352.69;5074683;28;20568;-86
2023/11/21 03:00:02;;;;;;;15.60;8.60;;;;;;;-144.99;100.00;67352.69;5072736;28;20649;-86
2023/11/21 03:02:27;;;;;;;12.23;8.47;;;;;;;-144.99;100.00;67352.69;5076356;28;20206;-84
2023/11/21 03:04:53;;;;;;;9.53;5.33;;;;;;;-144.99;100.00;67352.69;5076736;22;20346;-89
2023/11/21 03:07:21;;;;;;;12.07;6.10;;;;;;;-144.99;100.00;67352.69;5050209;28;20191;-90
2023/11/21 03:09:47;;;;;;;14.20;7.80;;;;;;;-144.99;100.00;67352.69;5053121;28;20648;-89
2023/11/21 03:12:12;;;;;;;10.43;7.40;;;;;;;-144.99;100.00;67352.69;5051212;28;20186;-89
2023/11/21 03:14:38;;;;;;;13.63;6.53;;;;;;;-144.99;100.00;67352.69;5069076;28;20672;-86
2023/11/21 03:17:04;;;;;;;14.10;7.20;;;;;;;-144.99;100.00;67352.69;5036382;28;20186;-86
2023/11/21 03:19:30;;;;;;;8.33;7.53;;;;;;;-144.99;100.00;67352.69;5032433;28;20638;-86
2023/11/21 03:21:55;;;;;;;12.87;8.33;;;;;;;-144.99;100.00;67352.69;5034212;28;20203;-86
2023/11/21 03:24:22;;;;;;;19.40;8.57;;;;;;;-144.99;100.00;67352.69;5036485;28;20206;-87
2023/11/21 03:26:48;;;;;;;13.37;10.13;;;;;;;-144.99;100.00;67352.69;5054137;28;20214;-87
2023/11/21 03:29:14;;;;;;;10.20;8.37;;;;;;;-144.99;100.00;67352.69;5036484;28;20187;-88
2023/11/21 03:31:40;;;;;;;20.37;10.50;;;;;;;-144.99;100.00;67352.69;5036550;28;20270;-86
2023/11/21 03:34:06;;;;;;;6.80;6.20;;;;;;;-144.99;100.00;67352.69;5054147;28;20689;-86
2023/11/21 03:36:34;;;;;;;9.10;8.10;;;;;;;-144.99;100.00;67352.69;5036244;28;20637;-87
2023/11/21 03:38:59;;;;;;;18.97;12.10;;;;;;;-144.99;100.00;67352.69;5034477;28;20184;-87
2023/11/21 03:41:25;;;;;;;6.13;5.63;;;;;;;-144.99;100.00;67352.69;5054044;28;20183;-86
2023/11/21 03:43:50;;;;;;;11.63;7.07;;;;;;;-144.99;100.00;67352.69;5053991;28;20285;-87
2023/11/21 03:46:21;;;;;;;28.30;10.63;;;;;;;-144.99;100.00;67352.69;5053735;28;20211;-86
2023/11/21 03:48:46;;;;;;;6.43;5.93;;;;;;;-144.99;100.00;67352.69;5036358;28;20214;-86
2023/11/21 03:51:12;;;;;;;5.97;5.47;;;;;;;-144.99;100.00;67352.69;5035843;28;20179;-86
2023/11/21 03:53:37;;;;;;;16.20;8.50;;;;;;;-144.99;100.00;67352.69;5053906;28;20669;-86
2023/11/21 03:56:03;;;;;;;20.30;8.77;;;;;;;-144.99;100.00;67352.69;5035799;28;20238;-87
2023/11/21 03:58:32;;;;;;;31.93;5.57;;;;;;;-144.99;100.00;67352.69;5053823;28;20180;-87
2023/11/21 04:00:57;;;;;;;13.70;6.00;;;;;;;-144.99;100.00;67352.69;5036198;28;20210;-87
2023/11/21 04:03:22;;;;;;;10.63;6.13;;;;;;;-144.99;100.00;67352.69;5036090;28;20683;-87
2023/11/21 04:05:47;;;;;;;28.83;10.37;;;;;;;-144.99;100.00;67352.69;5035642;28;20211;-86
2023/11/21 04:08:13;;;;;;;17.30;7.97;;;;;;;-144.99;100.00;67352.69;5035558;28;20187;-87
2023/11/21 04:10:39;;;;;;;14.47;7.17;;;;;;;-144.99;100.00;67352.69;5035941;28;20649;-87
2023/11/21 04:13:05;;;;;;;29.03;7.70;;;;;;;-144.99;100.00;67352.69;5053450;28;20268;-87
2023/11/21 04:15:30;;;;;;;21.10;7.27;;;;;;;-144.99;100.00;67352.69;5053513;28;20582;-87
2023/11/21 04:17:56;;;;;;;11.30;8.80;;;;;;;-144.99;100.00;67352.69;5035502;28;20215;-86
2023/11/21 04:20:23;;;;;;;8.67;6.93;;;;;;;-144.99;100.00;67352.69;5052101;28;20187;-87
2023/11/21 04:22:48;;;;;;;10.40;8.73;;;;;;;-144.99;100.00;67352.69;5035847;28;20179;-87
2023/11/21 04:25:15;;;;;;;9.40;7.27;;;;;;;-144.99;100.00;67352.69;5044772;28;20217;-86
2023/11/21 04:27:43;;;;;;;11.67;7.47;;;;;;;-144.99;100.00;67352.69;5034964;28;20191;-86
2023/11/21 04:30:09;;;;;;;9.13;7.90;;;;;;;-144.99;100.00;67352.69;5035447;28;20653;-86
2023/11/21 04:32:35;;;;;;;12.83;8.87;;;;;;;-144.99;100.00;67352.69;5053086;28;20184;-87
2023/11/21 04:35:00;;;;;;;12.27;9.37;;;;;;;-144.99;100.00;67352.69;5052023;28;20202;-87
2023/11/21 04:37:26;;;;;;;12.17;8.40;;;;;;;-144.99;100.00;67352.69;5051410;28;20194;-87
2023/11/21 04:39:51;;;;;;;26.07;9.97;;;;;;;-144.99;100.00;67352.69;5050728;28;20182;-86
2023/11/21 04:42:17;;;;;;;15.00;9.63;;;;;;;-144.99;100.00;67352.69;5072931;28;20368;-87
2023/11/21 04:44:43;;;;;;;32.63;12.07;;;;;;;-144.99;100.00;67352.69;5054794;28;20206;-86
2023/11/21 04:47:09;;;;;;;21.03;10.17;;;;;;;-144.99;100.00;67352.69;5071017;28;20188;-86
2023/11/21 04:49:34;;;;;;;3.67;2.57;;;;;;;-144.99;100.00;67352.69;5048395;28;20197;-87
2023/11/21 04:51:59;;;;;;;25.63;11.67;;;;;;;-144.99;100.00;67352.69;5054763;28;20186;-86
2023/11/21 04:54:25;;;;;;;5.70;5.17;;;;;;;-144.99;100.00;67352.69;5054775;28;20288;-87
2023/11/21 04:56:50;;;;;;;13.27;7.53;;;;;;;-144.99;100.00;67352.69;5054525;28;20179;-87
2023/11/21 04:59:15;;;;;;;17.07;8.33;;;;;;;-144.99;100.00;67352.69;5054604;28;20192;-87
2023/11/21 05:01:41;;;;;;;16.87;10.67;;;;;;;-144.99;100.00;67352.69;5054636;28;20198;-87
2023/11/21 05:04:08;;;;;;;24.27;9.37;;;;;;;-144.99;100.00;67352.69;5054635;28;20226;-87
2023/11/21 05:06:34;;;;;;;6.30;5.77;;;;;;;-144.99;100.00;67352.69;5054305;28;20202;-87
2023/11/21 05:08:59;;;;;;;14.00;12.03;;;;;;;-144.99;100.00;67352.69;5054441;28;20277;-86
2023/11/21 05:11:31;;;;;;;10.57;9.40;;;;;;;-144.99;100.00;67352.69;5028072;28;20207;-87
2023/11/21 05:13:58;;;;;;;14.23;5.97;;;;;;;-144.99;100.00;67352.69;5034108;28;20207;-86
2023/11/21 05:16:25;;;;;;;13.87;8.13;;;;;;;-144.99;100.00;67352.69;5034381;28;20167;-87
2023/11/21 05:18:51;;;;;;;4.03;3.73;;;;;;;-144.99;100.00;67352.69;5052252;28;20175;-87
2023/11/21 05:21:16;;;;;;;8.00;6.70;;;;;;;-144.99;100.00;67352.69;5034182;28;20187;-87
2023/11/21 05:23:41;;;;;;;13.93;6.33;;;;;;;-144.99;100.00;67352.69;5034322;28;20207;-86
2023/11/21 05:26:07;;;;;;;8.73;7.00;;;;;;;-144.99;100.00;67352.69;5034097;28;20238;-86
2023/11/21 05:28:32;;;;;;;9.90;6.27;;;;;;;-144.99;100.00;67352.69;5052074;28;20244;-86
2023/11/21 05:30:58;;;;;;;27.73;8.10;;;;;;;-144.99;100.00;67352.69;5050630;28;20282;-86
2023/11/21 05:33:23;;;;;;;3.10;2.53;;;;;;;-144.99;100.00;67352.69;5051728;28;20281;-87
2023/11/21 05:35:48;;;;;;;12.40;6.57;;;;;;;-144.99;100.00;67352.69;5034237;28;20624;-86
2023/11/21 05:38:14;;;;;;;5.30;4.90;;;;;;;-144.99;100.00;67352.69;5033970;28;20236;-86
2023/11/21 05:40:39;;;;;;;11.63;6.43;;;;;;;-144.99;100.00;67352.69;5051271;28;20175;-87
2023/11/21 05:43:05;;;;;;;15.90;5.27;;;;;;;-144.99;100.00;67352.69;5051740;28;20685;-87
2023/11/21 05:45:30;;;;;;;6.47;2.87;;;;;;;-144.99;100.00;67352.69;5033936;28;20223;-87
2023/11/21 05:47:56;;;;;;;19.00;6.27;;;;;;;-144.99;100.00;67352.69;5034085;28;20241;-87
2023/11/21 05:50:22;;;;;;;9.93;4.27;;;;;;;-144.99;100.00;67352.69;5050898;28;20179;-86
2023/11/21 05:52:48;;;;;;;13.13;4.90;;;;;;;-144.99;100.00;67352.69;5048881;28;20534;-86
2023/11/21 05:55:14;;;;;;;19.87;10.57;;;;;;;-144.99;100.00;67352.69;5045642;28;20261;-86
2023/11/21 05:57:41;;;;;;;8.57;7.67;;;;;;;-144.99;100.00;67352.69;5071573;28;20184;-87
2023/11/21 06:00:25;;;;;;;7.87;5.13;;;;;;;-144.99;100.00;67352.69;5063823;28;20182;-86
2023/11/21 06:02:54;;;;;;;19.03;10.47;;;;;;;-144.99;100.00;67352.69;5071703;28;20177;-87
2023/11/21 06:05:23;;;;;;;;;;;;;;;-144.99;100.00;67352.69;5053818;28;20016;-86
2023/11/21 06:07:48;;;;;;;;;;;;;;;-144.99;100.00;67352.69;5054010;28;19962;-86
2023/11/21 06:10:14;;;;;;;;;;;;;;;-144.99;100.00;67352.69;5070271;28;19912;-86
2023/11/21 06:12:40;;;;;;;;;;;;;;;-144.99;100.00;67352.69;5049323;28;19944;-87
2023/11/21 06:15:08;;;;;;;14.03;5.93;;;;;;;-144.99;100.00;67352.69;5053340;28;20187;-86
2023/11/21 06:17:36;;;;;;;6.40;5.80;;;;;;;-144.99;100.00;67352.69;5071416;28;20178;-87
2023/11/21 06:20:11;;;;;;;12.03;7.33;;;;;;;-144.99;100.00;67352.69;5053392;28;20273;-86
2023/11/21 06:22:44;;;;;;;8.00;6.33;;;;;;;-144.99;100.00;67352.69;5063113;28;20177;-87
2023/11/21 06:25:10;;;;;;;4.27;3.07;;;;;;;-144.99;100.00;67352.69;5053155;28;20323;-87
2023/11/21 06:27:39;;;;;;;5.63;3.60;;;;;;;-144.99;100.00;67352.69;5053329;28;20194;-86
2023/11/21 06:30:06;;;;;;;6.75;6.20;;;;;;;-144.99;100.00;67352.69;5071316;28;20141;-87
2023/11/21 06:32:32;;;;;;;6.23;3.03;;;;;;;-144.99;100.00;67352.69;5062994;28;20173;-86
2023/11/21 06:34:59;;;;;;;7.77;3.53;;;;;;;-144.99;100.00;67352.69;5053481;28;20297;-86
2023/11/21 06:37:26;;;;;;;7.30;6.60;;;;;;;-144.99;100.00;67352.69;5044961;28;20174;-87
2023/11/21 06:39:52;;;;;;;8.67;4.80;;;;;;;-144.99;100.00;67352.69;5045011;28;20096;-86
2023/11/21 06:42:19;;;;;;;2.23;2.10;;;;;;;-144.99;100.00;67352.69;5063111;28;20738;-86
2023/11/21 06:44:44;;;;;;;18.63;8.50;;;;;;;-144.99;100.00;67352.69;5070991;28;20191;-88
2023/11/21 06:47:10;;;;;;;2.57;2.47;;;;;;;-144.99;100.00;67352.69;5062685;28;20209;-86
2023/11/21 06:49:36;;;;;;;4.17;3.83;;;;;;;-144.99;100.00;67352.69;5053385;28;20710;-86
2023/11/21 06:52:02;;;;;;;8.53;6.47;;;;;;;-144.99;100.00;67352.69;5055684;28;20178;-87
2023/11/21 06:54:27;;;;;;;10.63;5.20;;;;;;;-144.99;100.00;67352.69;5075288;28;20194;-86
2023/11/21 06:56:53;;;;;;;4.50;4.03;;;;;;;-144.99;100.00;67352.69;5057295;28;20518;-86
2023/11/21 06:59:18;;;;;;;3.67;3.47;;;;;;;-144.99;100.00;67352.69;5057020;28;20275;-86
2023/11/21 07:01:44;;;;;;;3.53;3.33;;;;;;;-144.99;100.00;67352.69;5050917;28;20649;-87
2023/11/21 07:04:09;;;;;;;4.17;3.87;;;;;;;-144.99;100.00;67352.69;5072582;28;20213;-86
2023/11/21 07:06:35;;;;;;;8.10;3.53;;;;;;;-144.99;100.00;67352.69;5069553;28;20609;-86
2023/11/21 07:09:01;;;;;;;5.20;4.33;;;;;;;-144.99;100.00;67352.69;5054643;28;20183;-87
2023/11/21 07:11:27;;;;;;;5.27;2.03;;;;;;;-144.99;100.00;67352.69;5054636;28;20214;-86
2023/11/21 07:13:52;;;;;;;1.93;1.77;;;;;;;-144.99;100.00;67352.69;5054704;28;20225;-87
2023/11/21 07:16:18;;;;;;;6.50;1.60;;;;;;;-144.99;100.00;67352.69;5054322;28;20175;-86
2023/11/21 07:18:44;;;;;;;2.03;1.93;;;;;;;-144.99;100.00;67352.69;5054535;28;20241;-87
2023/11/21 07:21:11;;;;;;;;;;;;;;;-144.99;100.00;67352.69;5054859;28;20425;-87
2023/11/21 07:23:37;;;;;;;;;;;;;;;-144.99;100.00;67352.69;5058708;28;19912;-87
2023/11/21 07:26:02;;;;;;;;;;;;;;;-144.99;100.00;67352.69;5074397;28;19931;-86
2023/11/21 07:28:28;;;;;;;;;;;;;;;-144.99;100.00;67352.69;5073595;28;19920;-86
2023/11/21 07:30:53;;;;;;;;;;;;;;;-144.99;100.00;67352.69;5056832;28;19908;-86
2023/11/21 07:33:18;;;;;;;;;;;;;;;-144.99;100.00;67352.69;5066240;28;19916;-87
2023/11/21 07:35:43;;;;;;;1.97;1.80;;;;;;;-144.99;100.00;67352.69;5074472;28;19917;-87
2023/11/21 07:38:09;;;;;;;3.43;2.57;;;;;;;-144.99;100.00;67352.69;5062563;28;20186;-86
2023/11/21 07:40:34;;;;;;;0.73;0.60;;;;;;;-144.99;100.00;67352.69;5056722;28;20191;-86
2023/11/21 07:43:00;;;;;;;0.77;0.77;;;;;;;-144.99;100.00;67352.69;5073867;28;20174;-87
2023/11/21 07:45:27;;;;;;;1.97;1.10;;;;;;;-144.99;100.00;67352.69;5056082;28;20205;-86
2023/11/21 07:47:53;;;;;;;2.40;2.20;;;;;;;-144.99;100.00;67352.69;5073915;28;20249;-87
2023/11/21 07:50:19;;;;;;;1.73;1.43;;;;;;;-144.99;100.00;67352.69;5056085;28;20194;-87
2023/11/21 07:52:45;;;;;;;4.23;1.97;;;;;;;-144.99;100.00;67352.69;5055696;28;20245;-87
2023/11/21 07:55:11;;;;;;;4.57;3.57;;;;;;;-144.99;100.00;67352.69;5073700;28;20212;-87
2023/11/21 07:57:36;;;;;;;4.77;2.20;;;;;;;-144.99;100.00;67352.69;5037260;28;20180;-88
2023/11/21 08:00:03;;;;;;;0.67;0.67;;;;;;;-144.99;100.00;67352.69;5041708;28;20182;-86
2023/11/21 08:02:28;;;;;;;1.97;1.70;;;;;;;-144.99;100.00;67352.69;5073335;28;20206;-86
2023/11/21 08:04:56;;;;;;;0.30;0.30;;;;;;;-144.99;100.00;67352.69;5073829;28;20249;-87
2023/11/21 08:07:21;;;;;;;0.20;0.20;;;;;;;-144.99;100.00;67352.69;5073309;28;20559;-87
2023/11/21 08:09:49;;;;;;;0.30;0.30;;;;;;;-144.99;100.00;67352.69;5073687;28;20197;-86
2023/11/21 08:12:17;;;;;;;1.60;1.50;;;;;;;-144.99;100.00;67352.69;5065240;28;20757;-86
2023/11/21 08:14:43;;;;;;;1.43;1.27;;;;;;;-144.99;100.00;67352.69;5073544;28;20290;-87
2023/11/21 08:17:10;;;;;;;0.47;0.47;;;;;;;-144.99;100.00;67352.69;5055476;28;20169;-86
2023/11/21 08:19:36;;;;;;;0.93;0.57;;;;;;;-144.99;100.00;67352.69;5055595;28;20566;-86
2023/11/21 08:22:02;;;;;;;1.83;1.63;;;;;;;-144.99;100.00;67352.69;5055428;28;20273;-89
2023/11/21 08:24:27;;;;;;;1.00;0.80;;;;;;;-144.99;100.00;67352.69;5073233;28;20293;-87
2023/11/21 08:26:54;;;;;;;0.87;0.87;;;;;;;-144.99;100.00;67352.69;5047752;28;20210;-86
2023/11/21 08:29:19;;;;;;;3.10;2.07;;;;;;;-144.99;100.00;67352.69;5039592;28;20245;-86
2023/11/21 08:31:47;;;;;;;1.07;0.83;;;;;;;-144.99;100.00;67352.69;5052818;28;20179;-86
2023/11/21 08:34:14;;;;;;;0.97;0.97;;;;;;;-144.99;100.00;67352.69;5052871;28;20680;-86
2023/11/21 08:36:43;;;;;;;2.67;1.83;;;;;;;-144.99;100.00;67352.69;5032311;28;20187;-86
2023/11/21 08:39:09;;;;;;;8.23;2.00;;;;;;;-144.99;100.00;67352.69;5052821;28;20187;-86
2023/11/21 08:41:36;;;;;;;0.37;0.37;;;;;;;-144.99;100.00;67352.69;5035058;28;20278;-88
2023/11/21 08:44:02;;;;;;;2.87;2.67;;;;;;;-144.99;100.00;67352.69;5052553;28;20225;-86
2023/11/21 08:46:27;;;;;;;2.77;2.43;;;;;;;-144.99;100.00;67352.69;5052461;28;20234;-86
2023/11/21 08:48:52;;;;;;;3.67;3.20;;;;;;;-144.99;100.00;67352.69;5052688;28;20185;-85
2023/11/21 08:51:18;;;;;;;2.37;2.17;;;;;;;-144.99;100.00;67352.69;5052736;28;20222;-85
2023/11/21 08:53:44;;;;;;;6.70;2.90;;;;;;;-144.99;100.00;67352.69;5034894;28;20203;-86
2023/11/21 08:56:16;;;;;;;6.73;4.27;;;;;;;-144.99;100.00;67352.69;5051757;28;20175;-86
2023/11/21 08:58:41;;;;;;;4.20;3.80;;;;;;;-144.99;100.00;67352.69;5072774;28;20182;-86
2023/11/21 09:01:07;;;;;;;2.57;2.47;;;;;;;-144.99;100.00;67352.69;5046400;28;20153;-86
2023/11/21 09:03:34;;;;;;;12.23;9.27;;;;;;;-144.99;100.00;67352.69;5053896;28;20286;-86
2023/11/21 09:06:00;;;;;;;6.13;5.63;;;;;;;-144.99;100.00;67352.69;5083517;22;20700;-86
2023/11/21 09:08:25;;;;;;;;;;;;;;;-144.99;100.00;67352.69;5079165;28;20157;-85
2023/11/21 09:10:50;;;;;;;;;;;;;;;-144.99;100.00;67352.69;5087191;28;19908;-84
2023/11/21 09:13:16;;;;;;;;;;;;;;;-144.99;100.00;67352.69;5097701;28;19908;-86
2023/11/21 09:15:41;;;;;;;;;;;;;;;-144.99;100.00;67352.69;5081887;28;19946;-85
2023/11/21 09:18:07;;;;;;;;;;;;;;;-144.99;100.00;67352.69;5076210;28;19914;-85
2023/11/21 09:20:32;;;;;;;;;;;;;;;-144.99;100.00;67352.69;5076238;28;19908;-86
2023/11/21 09:22:57;;;;;;;0.10;0.10;;;;;;;-144.99;100.00;67352.69;5075573;28;20169;-85
2023/11/21 09:25:23;;;;;;;5.30;4.53;;;;;;;-144.99;100.00;67352.69;5075224;28;20206;-85
2023/11/21 09:27:48;;;;;;;8.60;5.47;;;;;;;-144.99;100.00;67352.69;5075209;28;20186;-85
2023/11/21 09:30:16;;;;;;;11.70;4.20;;;;;;;-144.99;100.00;67352.69;5075386;28;20187;-85
2023/11/21 09:32:45;;;;;;;7.53;5.70;;;;;;;-144.99;100.00;67352.69;5067083;28;20208;-85
2023/11/21 09:35:11;;;;;;;7.00;4.73;;;;;;;-144.99;100.00;67352.69;5075685;28;20201;-85
2023/11/21 09:37:38;;;;;;;4.43;4.07;;;;;;;-144.99;100.00;67352.69;5075003;28;20174;-84
2023/11/21 09:40:05;;;;;;;6.43;4.40;;;;;;;-144.99;100.00;67352.69;5075179;28;20189;-85
2023/11/21 09:42:38;;;;;;;2.03;1.50;;;;;;;-144.99;100.00;67352.69;5092889;28;20189;-85
2023/11/21 09:45:21;;;;;;;2.40;2.30;;;;;;;-144.99;100.00;67352.69;5092762;28;20227;-86
2023/11/21 09:47:46;;;;;;;3.67;2.37;;;;;;;-144.99;100.00;67352.69;5100300;28;20693;-85
2023/11/21 09:50:17;;;;;;;7.23;6.33;;;;;;;-144.99;100.00;67352.69;5081607;28;20181;-85
2023/11/21 09:52:54;;;;;;;2.67;2.27;;;;;;;-144.99;100.00;67352.69;5099919;28;20181;-86
2023/11/21 09:55:21;;;;;;;5.47;4.93;;;;;;;-144.99;100.00;67352.69;5081312;28;20205;-87
2023/11/21 09:57:48;;;;;;;1.67;1.20;;;;;;;-144.99;100.00;67352.69;5100664;28;20197;-86
2023/11/21 10:00:17;;;;;;;1.43;1.33;;;;;;;-144.99;100.00;67352.69;5081613;28;20206;-86
2023/11/21 10:02:43;;;;;;;0.87;0.87;;;;;;;-144.99;100.00;67352.69;5101348;28;20180;-86
2023/11/21 10:05:09;;;;;;;5.07;3.43;;;;;;;-144.99;100.00;67352.69;5083530;28;20675;-86
2023/11/21 10:07:35;;;;;;;4.23;3.00;;;;;;;-144.99;100.00;67352.69;5097792;28;20232;-87
2023/11/21 10:10:01;;;;;;;5.87;4.17;;;;;;;-144.99;100.00;67352.69;5081474;28;20182;-87
2023/11/21 10:12:28;;;;;;;8.50;6.53;;;;;;;-144.99;100.00;67352.69;5102942;28;20177;-88
2023/11/21 10:14:55;;;;;;;1.77;1.67;;;;;;;-144.99;100.00;67352.69;5085146;28;20211;-86
2023/11/21 10:17:27;;;;;;;1.73;1.67;;;;;;;-144.99;100.00;67352.69;5084349;28;20178;-87
2023/11/21 10:19:53;;;;;;;0.57;0.57;;;;;;;-144.99;100.00;67352.69;5089583;28;20186;-87
2023/11/21 10:22:20;;;;;;;7.03;6.33;;;;;;;-144.99;100.00;67352.69;5106604;28;20178;-87
2023/11/21 10:24:45;;;;;;;4.27;3.93;;;;;;;-144.99;100.00;67352.69;5074471;28;20221;-87
2023/11/21 10:27:11;;;;;;;7.90;5.30;;;;;;;-144.99;100.00;67352.69;5087821;28;20200;-87
2023/11/21 10:29:36;;;;;;;1.93;1.80;;;;;;;-144.99;100.00;67352.69;5112234;28;20233;-86
2023/11/21 10:32:03;;;;;;;3.50;3.20;;;;;;;-144.99;100.00;67352.69;5111831;28;20181;-86
2023/11/21 10:34:29;;;;;;;7.10;5.63;;;;;;;-144.99;100.00;67352.69;5107522;28;20184;-87
2023/11/21 10:36:57;;;;;;;5.13;2.43;;;;;;;-144.99;100.00;67352.69;5088708;28;20201;-87
2023/11/21 10:39:23;;;;;;;0.53;0.53;;;;;;;-144.99;100.00;67352.69;5089404;28;20174;-86
2023/11/21 10:41:50;;;;;;;1.03;1.03;;;;;;;-144.99;100.00;67352.69;5089866;28;20678;-87
2023/11/21 10:44:20;;;;;;;0.47;0.47;;;;;;;-144.99;100.00;67352.69;5089073;28;20177;-85
2023/11/21 10:46:50;;;;;;;1.87;0.67;;;;;;;-144.99;100.00;67352.69;5105966;28;20201;-86
2023/11/21 10:49:20;;;;;;;4.03;3.73;;;;;;;-144.99;100.00;67352.69;5079175;28;20210;-87
2023/11/21 10:51:45;;;;;;;1.37;1.27;;;;;;;-144.99;100.00;67352.69;5088545;28;20281;-87
2023/11/21 10:54:12;;;;;;;0.67;0.43;;;;;;;-144.99;100.00;67352.69;5106614;28;20179;-87
2023/11/21 10:56:40;;;;;;;1.87;1.77;;;;;;;-144.99;100.00;67352.69;5106716;28;20193;-86
2023/11/21 10:59:10;;;;;;;4.13;3.73;;;;;;;-144.99;100.00;67352.69;5106350;28;20173;-88
2023/11/21 11:01:36;;;;;;;1.07;0.97;;;;;;;-144.99;100.00;67352.69;5089464;28;20173;-87
2023/11/21 11:04:06;;;;;;;2.07;1.87;;;;;;;-144.99;100.00;67352.69;5089545;28;20181;-87
2023/11/21 11:06:32;;;;;;;1.30;0.87;;;;;;;-144.99;100.00;67352.69;5096235;28;20205;-88
2023/11/21 11:08:59;;;;;;;2.43;2.23;;;;;;;-144.99;100.00;67352.69;5101038;28;20173;-89